Airport View

Enter AWOS ICAO identifier for current METAR.

ex. KFNL

KHBI 191905Z AUTO 34008KT 10SM CLR 11/M09 A2994 RMK AO2 T01101090

19 Jan 2020 18:57

Frequency: 119.275

Phone: 336-626-7933

Other Area AWOS: KVUJ - KSCR - KEXX - KGSO

TAF KGSO 191720Z 1918/2018 31012G22KT P6SM FEW250 FM200300 34010KT P6SM SKC